createdAt,value
2023-01-04T10:08:36.151Z,9.50
2023-01-04T10:11:31.648Z,10.70
2023-01-04T10:14:30.633Z,7.00
2023-01-04T10:17:20.660Z,5.60
2023-01-04T10:23:21.986Z,6.70
2023-01-04T10:25:57.339Z,8.30
2023-01-04T10:28:59.139Z,9.20
2023-01-04T10:31:49.645Z,7.80
2023-01-04T10:34:22.618Z,8.50
2023-01-04T10:36:51.718Z,8.30
2023-01-04T10:39:27.006Z,7.60
2023-01-04T10:41:59.429Z,8.60
2023-01-04T10:44:50.637Z,7.00
2023-01-04T10:47:31.107Z,9.40
2023-01-04T10:50:01.779Z,8.80
2023-01-04T10:52:43.253Z,9.70
2023-01-04T10:55:27.677Z,8.60
2023-01-04T10:58:09.117Z,9.50
2023-01-04T11:00:44.479Z,9.00
2023-01-04T11:03:33.439Z,9.60
2023-01-04T11:06:19.016Z,9.20
2023-01-04T11:09:13.369Z,8.90
2023-01-04T11:11:47.840Z,9.00
2023-01-04T11:14:15.915Z,7.90
2023-01-04T11:16:50.253Z,7.90
2023-01-04T11:19:17.493Z,9.00
2023-01-04T11:21:51.468Z,8.40
2023-01-04T11:24:34.612Z,8.20
2023-01-04T11:27:07.871Z,6.70
2023-01-04T11:29:53.095Z,7.50
2023-01-04T11:32:33.015Z,8.60
2023-01-04T11:34:59.987Z,9.90
2023-01-04T11:37:33.463Z,10.80
2023-01-04T11:40:21.399Z,8.10
2023-01-04T11:43:10.240Z,10.80
2023-01-04T11:45:39.997Z,8.30
2023-01-04T11:48:14.536Z,8.00
2023-01-04T11:50:47.065Z,11.00
2023-01-04T11:53:34.723Z,12.90
2023-01-04T11:56:09.596Z,8.90
2023-01-04T11:58:37.493Z,8.40
2023-01-04T12:01:23.765Z,9.30
2023-01-04T12:03:51.356Z,8.50
2023-01-04T12:06:25.140Z,10.90
2023-01-04T12:08:52.123Z,9.90
2023-01-04T12:11:26.299Z,9.20
2023-01-04T12:13:53.339Z,8.50
2023-01-04T12:16:48.162Z,8.10
2023-01-04T12:19:20.196Z,11.50
2023-01-04T12:21:53.417Z,10.20
2023-01-04T12:24:25.136Z,9.50
2023-01-04T12:26:54.631Z,9.70
2023-01-04T12:29:24.310Z,9.60
2023-01-04T12:32:01.840Z,9.20
2023-01-04T12:34:28.801Z,8.70
2023-01-04T12:37:05.290Z,9.20
2023-01-04T12:39:43.852Z,8.60
2023-01-04T12:42:17.645Z,10.30
2023-01-04T12:44:47.116Z,8.60
2023-01-04T12:47:39.039Z,8.50
2023-01-04T12:50:18.443Z,8.60
2023-01-04T12:55:43.877Z,9.80
2023-01-04T12:59:23.604Z,8.90
2023-01-04T13:01:33.073Z,8.00
2023-01-04T13:04:06.106Z,7.90
2023-01-04T13:06:42.850Z,9.10
2023-01-04T13:09:23.766Z,8.00
2023-01-04T13:12:32.961Z,10.80
2023-01-04T13:15:06.968Z,12.60
2023-01-04T13:17:40.165Z,29.00
2023-01-04T13:20:19.606Z,31.50
2023-01-04T13:22:53.605Z,44.10
2023-01-04T13:25:22.567Z,59.20
2023-01-04T13:28:04.331Z,65.50
2023-01-04T13:30:39.011Z,58.00
2023-01-04T13:33:26.760Z,49.90
2023-01-04T13:36:09.004Z,49.50
2023-01-04T13:38:39.451Z,54.40
2023-01-04T13:41:22.338Z,53.90
2023-01-04T13:44:08.162Z,66.20
2023-01-04T13:46:35.243Z,63.30
2023-01-04T13:49:03.417Z,56.20
2023-01-04T13:51:36.968Z,58.10
2023-01-04T13:54:07.565Z,56.90
2023-01-04T13:56:35.607Z,64.10
2023-01-04T13:59:03.129Z,64.40
2023-01-04T14:01:37.370Z,60.90
2023-01-04T14:04:07.937Z,58.30
2023-01-04T14:06:41.782Z,58.10
2023-01-04T14:09:11.816Z,56.80
2023-01-04T14:12:06.141Z,54.80
2023-01-04T14:14:45.390Z,56.40
2023-01-04T14:17:12.752Z,52.60
2023-01-04T14:19:47.658Z,52.10
2023-01-04T14:22:28.128Z,49.50
2023-01-04T14:25:13.216Z,51.80
2023-01-04T14:27:45.552Z,48.00
2023-01-04T14:30:18.331Z,47.30
2023-01-04T14:33:00.729Z,37.30
2023-01-04T14:35:29.245Z,39.90
2023-01-04T14:38:03.785Z,34.40
2023-01-04T14:40:33.877Z,37.80
2023-01-04T14:43:00.863Z,34.30
2023-01-04T14:45:28.024Z,38.20
2023-01-04T14:47:54.906Z,36.70
2023-01-04T14:50:21.944Z,45.40
2023-01-04T14:52:52.788Z,33.40
2023-01-04T14:55:20.117Z,34.20
2023-01-04T14:57:47.143Z,33.60
2023-01-04T15:00:19.578Z,32.50
2023-01-04T15:02:51.098Z,30.80
2023-01-04T15:05:21.492Z,31.00
2023-01-04T15:07:48.416Z,29.50
2023-01-04T15:10:23.051Z,30.40
2023-01-04T15:12:50.473Z,31.70
2023-01-04T15:15:18.139Z,27.50
2023-01-04T15:17:46.227Z,27.00
2023-01-04T15:20:14.547Z,26.30
2023-01-04T15:22:41.590Z,34.40
2023-01-04T15:25:10.178Z,29.80
2023-01-04T15:27:42.145Z,27.90
2023-01-04T15:30:11.611Z,27.90
2023-01-04T15:32:39.471Z,28.90
2023-01-04T15:35:07.448Z,27.10
2023-01-04T15:37:34.453Z,23.40
2023-01-04T15:40:03.209Z,22.70
2023-01-04T15:42:49.566Z,28.10
2023-01-04T15:45:17.595Z,25.50
2023-01-04T15:47:44.507Z,27.60
2023-01-04T15:50:11.391Z,24.50
2023-01-04T15:52:38.341Z,26.00
2023-01-04T15:55:05.714Z,24.40
2023-01-04T15:57:32.732Z,26.20
2023-01-04T15:59:59.831Z,24.20
2023-01-04T16:02:27.205Z,24.80
2023-01-04T16:04:54.348Z,28.00
2023-01-04T16:07:21.410Z,24.20
2023-01-04T16:09:48.615Z,24.50
2023-01-04T16:12:34.284Z,21.40
2023-01-04T16:15:01.472Z,20.80
2023-01-04T16:17:28.920Z,23.10
2023-01-04T16:19:55.910Z,20.40
2023-01-04T16:22:22.959Z,24.90
2023-01-04T16:27:39.433Z,19.90
2023-01-04T16:30:11.342Z,21.40
2023-01-04T16:32:44.843Z,19.80
2023-01-04T16:35:12.946Z,20.00
2023-01-04T16:37:40.319Z,18.50
2023-01-04T16:40:08.981Z,18.10
2023-01-04T16:42:37.958Z,18.40
2023-01-04T16:45:06.259Z,19.80
2023-01-04T16:47:41.855Z,20.80
2023-01-04T16:50:10.091Z,19.40
2023-01-04T16:52:37.324Z,19.50
2023-01-04T16:55:05.663Z,17.80
2023-01-04T16:57:32.827Z,21.70
2023-01-04T16:59:59.886Z,20.50
2023-01-04T17:02:26.957Z,17.30
2023-01-04T17:04:55.589Z,20.60
2023-01-04T17:07:22.952Z,19.70
2023-01-04T17:09:50.199Z,17.40
2023-01-04T17:17:51.372Z,17.50
2023-01-04T17:20:19.052Z,17.70
2023-01-04T17:22:45.995Z,18.40
2023-01-04T17:25:13.020Z,17.00
2023-01-04T17:27:40.095Z,14.90
2023-01-04T17:30:07.604Z,17.00
2023-01-04T17:32:34.556Z,17.30
2023-01-04T17:35:01.545Z,16.60
2023-01-04T17:37:28.575Z,16.90
2023-01-04T17:39:55.676Z,14.60
2023-01-04T17:42:23.391Z,17.30
2023-01-04T17:44:50.312Z,20.90
2023-01-04T17:47:17.364Z,15.10
2023-01-04T17:49:44.280Z,16.60
2023-01-04T17:52:16.316Z,14.90
2023-01-04T17:54:47.208Z,14.30
2023-01-04T17:57:14.182Z,16.30
2023-01-04T17:59:44.380Z,16.60
2023-01-04T18:02:11.566Z,20.80
2023-01-04T18:04:38.614Z,17.50
2023-01-04T18:07:05.669Z,14.60
2023-01-04T18:09:32.739Z,18.10
2023-01-04T18:11:59.810Z,17.00
2023-01-04T18:14:27.872Z,14.10
2023-01-04T18:16:58.630Z,14.30
2023-01-04T18:19:29.160Z,18.70
2023-01-04T18:21:57.025Z,16.10
2023-01-04T18:24:39.896Z,19.30
2023-01-04T18:27:26.201Z,16.90
2023-01-04T18:29:55.264Z,14.30
2023-01-04T18:32:24.093Z,18.50
2023-01-04T18:34:51.181Z,17.40
2023-01-04T18:37:19.101Z,24.30
2023-01-04T18:39:47.348Z,28.20
2023-01-04T18:42:15.727Z,30.10
2023-01-04T18:44:47.785Z,37.00
2023-01-04T18:47:16.288Z,37.90
2023-01-04T18:49:43.496Z,40.40
2023-01-04T18:52:10.640Z,39.30
2023-01-04T18:54:37.627Z,44.80
2023-01-04T18:57:05.317Z,37.90
2023-01-04T18:59:33.015Z,42.10
2023-01-04T19:02:01.958Z,36.90
2023-01-04T19:04:35.134Z,34.10
2023-01-04T19:07:04.988Z,35.40
2023-01-04T19:09:31.968Z,35.80
2023-01-04T19:11:59.515Z,36.00
2023-01-04T19:14:26.470Z,35.40
2023-01-04T19:16:54.317Z,41.10
2023-01-04T19:19:21.353Z,33.90
2023-01-04T19:21:48.877Z,32.00
2023-01-04T19:24:16.427Z,32.20
2023-01-04T19:26:43.708Z,29.60
2023-01-04T19:29:10.834Z,34.20
2023-01-04T19:31:39.028Z,27.60
2023-01-04T19:34:08.789Z,29.50
2023-01-04T19:36:36.029Z,30.20
2023-01-04T19:39:09.525Z,28.00
2023-01-04T19:41:38.362Z,29.80
2023-01-04T19:44:08.607Z,28.60
2023-01-04T19:46:38.493Z,29.50
2023-01-04T19:49:10.908Z,31.40
2023-01-04T19:51:43.969Z,28.90
2023-01-04T19:54:12.109Z,30.30
2023-01-04T19:56:39.985Z,24.80
2023-01-04T19:59:07.152Z,29.90
2023-01-04T20:01:34.325Z,23.60
2023-01-04T20:04:01.565Z,20.50
2023-01-04T20:06:28.513Z,25.70
2023-01-04T20:08:55.544Z,21.10
2023-01-04T20:11:22.883Z,24.10
2023-01-04T20:13:49.917Z,23.50
2023-01-04T20:16:17.111Z,23.60
2023-01-04T20:18:44.310Z,27.80
2023-01-04T20:21:14.072Z,25.20
2023-01-04T20:23:42.035Z,23.60
2023-01-04T20:26:14.385Z,20.90
2023-01-04T20:28:44.229Z,22.00
2023-01-04T20:31:13.812Z,24.30
2023-01-04T20:33:42.240Z,22.30
2023-01-04T20:36:19.729Z,25.30
2023-01-04T20:38:48.082Z,26.20
2023-01-04T20:41:18.821Z,21.50
2023-01-04T20:43:47.321Z,21.40
2023-01-04T20:46:17.561Z,24.00
2023-01-04T20:48:45.855Z,29.70
2023-01-04T20:51:15.867Z,26.70
2023-01-04T20:53:42.865Z,24.10
2023-01-04T20:56:16.312Z,22.40
2023-01-04T20:58:45.716Z,23.30
2023-01-04T21:01:13.535Z,22.00
2023-01-04T21:03:41.371Z,16.90
2023-01-04T21:06:12.675Z,15.10
2023-01-04T21:08:41.408Z,17.80
2023-01-04T21:11:09.608Z,18.40
2023-01-04T21:13:36.670Z,20.80
2023-01-04T21:16:04.874Z,19.40
2023-01-04T21:18:33.354Z,16.80
2023-01-04T21:21:05.941Z,24.30
2023-01-04T21:23:32.880Z,19.40
2023-01-04T21:26:07.947Z,18.60
2023-01-04T21:28:36.608Z,22.00
2023-01-04T21:31:11.905Z,15.80
2023-01-04T21:33:40.317Z,17.50
2023-01-04T21:36:19.849Z,19.70
2023-01-04T21:38:57.388Z,18.70
2023-01-04T21:41:32.532Z,18.10
2023-01-04T21:44:01.420Z,17.00
2023-01-04T21:46:29.671Z,17.30
2023-01-04T21:48:59.610Z,19.10
2023-01-04T21:51:26.588Z,16.90
2023-01-04T21:53:56.457Z,15.60
2023-01-04T21:56:25.485Z,18.20
2023-01-04T21:58:52.666Z,16.40
2023-01-04T22:01:29.856Z,18.10
2023-01-04T22:03:59.851Z,16.70
2023-01-04T22:06:27.496Z,17.20
2023-01-04T22:08:54.569Z,17.10
2023-01-04T22:11:24.636Z,16.70
2023-01-04T22:13:52.139Z,18.20
2023-01-04T22:16:19.925Z,18.40
2023-01-04T22:18:48.753Z,17.90
2023-01-04T22:21:19.527Z,19.60
2023-01-04T22:23:49.238Z,16.50
2023-01-04T22:26:16.539Z,17.40
2023-01-04T22:28:45.072Z,16.40
2023-01-04T22:31:14.018Z,15.20
2023-01-04T22:33:41.874Z,13.50
2023-01-04T22:36:17.408Z,17.00
2023-01-04T22:38:50.615Z,13.70
2023-01-04T22:41:19.377Z,15.60
2023-01-04T22:43:47.384Z,14.00
2023-01-04T22:46:17.593Z,13.00
2023-01-04T22:48:47.646Z,15.10
2023-01-04T22:51:16.399Z,14.00
2023-01-04T22:53:44.200Z,13.90
2023-01-04T22:56:22.966Z,12.50
2023-01-04T22:58:54.628Z,13.80
2023-01-04T23:01:24.361Z,14.00
2023-01-04T23:03:52.276Z,12.40
2023-01-04T23:06:20.025Z,14.40
2023-01-04T23:08:47.035Z,14.40
2023-01-04T23:11:18.388Z,16.00
2023-01-04T23:13:47.178Z,14.40
2023-01-04T23:16:16.143Z,12.70
2023-01-04T23:18:46.468Z,15.30
2023-01-04T23:21:14.743Z,12.80
2023-01-04T23:23:42.669Z,13.30
2023-01-04T23:26:16.102Z,14.10
2023-01-04T23:28:44.068Z,14.90
2023-01-04T23:31:13.580Z,12.20
2023-01-04T23:33:40.895Z,13.10
2023-01-04T23:36:16.830Z,14.30
2023-01-04T23:38:49.477Z,14.50
2023-01-04T23:41:16.579Z,12.10
2023-01-04T23:43:43.655Z,13.80
2023-01-04T23:46:19.612Z,13.70
2023-01-04T23:48:46.583Z,12.30
2023-01-04T23:51:13.771Z,12.90
2023-01-04T23:53:40.645Z,13.80
2023-01-04T23:56:14.749Z,10.80
2023-01-04T23:58:42.057Z,12.50
